Time;durP1;ratioP1;P1;durP2;ratioP2;P2;SDS_P1;SDS_P2;PMS_P1;PMS_P2;Temp;Humidity;BMP_temperature;BMP_pressure;BME280_temperature;BME280_humidity;BME280_pressure;Samples;Min_cycle;Max_cycle;Signal;HPM_P1;HPM_P2
2022/11/30 00:01:14;;;;;;;29.45;11.45;;;3.70;99.90;;;;;;5016273;28;20052;-93
2022/11/30 00:03:40;;;;;;;40.00;12.80;;;3.70;99.90;;;;;;5015646;28;20435;-93
2022/11/30 00:06:08;;;;;;;37.60;11.35;;;3.70;99.90;;;;;;5016569;28;20037;-93
2022/11/30 00:08:34;;;;;;;29.95;9.50;;;3.70;99.90;;;;;;5016145;28;20087;-93
2022/11/30 00:11:00;;;;;;;34.90;12.40;;;3.70;99.90;;;;;;5016676;28;20105;-92
2022/11/30 00:13:25;;;;;;;36.10;10.68;;;3.70;99.90;;;;;;5033060;28;20029;-93
2022/11/30 00:15:51;;;;;;;36.50;12.57;;;3.60;99.90;;;;;;5027807;28;20029;-93
2022/11/30 00:18:16;;;;;;;31.73;11.63;;;3.60;99.90;;;;;;5035994;28;20021;-93
2022/11/30 00:20:43;;;;;;;33.55;11.40;;;3.60;99.90;;;;;;5036273;28;20033;-94
2022/11/30 00:23:09;;;;;;;46.78;13.80;;;3.60;99.90;;;;;;5036039;28;20104;-93
2022/11/30 00:25:35;;;;;;;49.30;14.93;;;3.70;99.90;;;;;;5035348;28;20620;-92
2022/11/30 00:28:01;;;;;;;45.58;13.63;;;3.70;99.90;;;;;;5035280;28;20025;-92
2022/11/30 00:30:27;;;;;;;39.78;13.88;;;3.70;99.90;;;;;;5035085;28;20115;-93
2022/11/30 00:32:57;;;;;;;47.35;13.55;;;3.70;99.90;;;;;;5035409;28;20025;-93
2022/11/30 00:35:23;;;;;;;45.67;13.65;;;3.70;99.90;;;;;;5035110;28;20016;-92
2022/11/30 00:37:49;;;;;;;44.38;12.45;;;3.70;99.90;;;;;;5036190;28;20478;-91
2022/11/30 00:40:14;;;;;;;35.53;11.82;;;3.60;99.90;;;;;;5035203;28;20027;-92
2022/11/30 00:42:41;;;;;;;30.38;10.13;;;3.60;99.90;;;;;;5034514;28;20123;-93
2022/11/30 00:45:07;;;;;;;35.40;10.48;;;3.60;99.90;;;;;;5052133;28;20048;-93
2022/11/30 00:47:32;;;;;;;41.13;11.20;;;3.60;99.90;;;;;;5035288;28;20032;-93
2022/11/30 00:49:58;;;;;;;36.42;11.57;;;3.60;99.90;;;;;;5035629;28;20021;-93
2022/11/30 00:52:24;;;;;;;39.00;13.35;;;3.60;99.90;;;;;;5031063;28;20124;-93
2022/11/30 00:54:49;;;;;;;42.28;12.13;;;3.60;99.90;;;;;;5022277;28;20044;-93
2022/11/30 00:57:15;;;;;;;46.97;13.52;;;3.60;99.90;;;;;;5023498;28;20032;-93
2022/11/30 00:59:41;;;;;;;40.67;13.85;;;3.60;99.90;;;;;;5025150;28;20087;-94
2022/11/30 01:02:07;;;;;;;40.65;13.07;;;3.70;99.90;;;;;;5027607;28;20094;-93
2022/11/30 01:04:33;;;;;;;41.45;14.23;;;3.70;99.90;;;;;;5023104;28;20025;-93
2022/11/30 01:06:58;;;;;;;42.03;13.38;;;3.70;99.90;;;;;;5030057;28;20527;-93
2022/11/30 01:09:24;;;;;;;45.42;12.65;;;3.70;99.90;;;;;;5036409;28;20097;-93
2022/11/30 01:11:49;;;;;;;42.10;13.82;;;3.70;99.90;;;;;;5031710;28;20041;-93
2022/11/30 01:14:15;;;;;;;41.65;13.23;;;3.70;99.90;;;;;;5027009;28;20077;-94
2022/11/30 01:16:42;;;;;;;37.25;12.90;;;3.70;99.90;;;;;;5022207;28;20048;-94
2022/11/30 01:19:07;;;;;;;40.30;12.13;;;3.70;99.90;;;;;;5017836;28;20036;-93
2022/11/30 01:21:33;;;;;;;45.78;12.13;;;3.70;99.90;;;;;;5018574;28;20026;-93
2022/11/30 01:23:59;;;;;;;38.88;12.45;;;3.70;99.90;;;;;;5018840;28;20053;-93
2022/11/30 01:26:25;;;;;;;36.33;12.20;;;3.60;99.90;;;;;;5036214;28;20021;-94
2022/11/30 01:28:52;;;;;;;43.88;14.48;;;3.60;99.90;;;;;;5018889;28;20049;-93
2022/11/30 01:31:19;;;;;;;41.10;12.30;;;3.60;99.90;;;;;;5018788;28;20025;-94
2022/11/30 01:33:52;;;;;;;40.47;14.65;;;3.60;99.90;;;;;;5019303;28;20083;-92
2022/11/30 01:36:21;;;;;;;44.72;13.82;;;3.60;99.90;;;;;;5019309;28;20033;-93
2022/11/30 01:38:52;;;;;;;54.42;15.05;;;3.60;99.90;;;;;;5019464;28;20021;-94
2022/11/30 01:41:21;;;;;;;42.60;12.93;;;3.60;99.90;;;;;;5019852;28;20033;-92
2022/11/30 01:43:50;;;;;;;44.40;13.07;;;3.60;99.90;;;;;;5018917;28;20034;-93
2022/11/30 01:46:45;;;;;;;35.10;11.70;;;3.60;99.90;;;;;;5018943;28;20680;-93
2022/11/30 01:49:17;;;;;;;36.72;12.25;;;3.60;99.90;;;;;;5018487;28;20033;-95
2022/11/30 01:51:47;;;;;;;32.47;11.02;;;3.60;99.90;;;;;;5018428;28;20497;-93
2022/11/30 01:54:18;;;;;;;;;;;3.50;99.90;;;;;;5018428;28;20517;-94
2022/11/30 01:56:49;;;;;;;39.10;12.13;;;3.50;99.90;;;;;;5018546;28;20051;-93
2022/11/30 01:59:16;;;;;;;35.85;11.25;;;3.50;99.90;;;;;;5026981;28;20032;-93
2022/11/30 02:01:42;;;;;;;36.72;10.50;;;3.50;99.90;;;;;;5018604;28;20128;-93
2022/11/30 02:04:14;;;;;;;33.22;10.88;;;3.50;99.90;;;;;;5018114;28;20128;-93
2022/11/30 02:06:40;;;;;;;33.08;10.48;;;3.50;99.90;;;;;;5018092;28;20017;-92
2022/11/30 02:09:06;;;;;;;39.08;11.75;;;3.40;99.90;;;;;;5018459;28;20601;-93
2022/11/30 02:11:32;;;;;;;33.83;10.88;;;3.50;99.90;;;;;;5017599;28;20113;-92
2022/11/30 02:14:10;;;;;;;35.53;10.45;;;3.40;99.90;;;;;;5017796;28;20053;-93
2022/11/30 02:17:06;;;;;;;36.17;11.05;;;3.40;99.90;;;;;;5017525;28;20029;-93
2022/11/30 02:20:26;;;;;;;32.13;10.10;;;3.40;99.90;;;;;;5017597;28;20097;-92
2022/11/30 02:23:02;;;;;;;42.75;11.18;;;3.40;99.90;;;;;;4974157;28;20077;-92
2022/11/30 02:26:10;;;;;;;32.72;11.35;;;3.40;99.90;;;;;;4974581;28;20027;-93
2022/11/30 02:28:56;;;;;;;39.25;11.05;;;3.40;99.90;;;;;;4957352;28;20039;-93
2022/11/30 02:31:27;;;;;;;36.63;11.65;;;3.40;99.90;;;;;;4958193;28;20023;-94
2022/11/30 02:33:56;;;;;;;39.65;12.02;;;3.40;99.90;;;;;;4958030;28;20046;-93
2022/11/30 02:36:23;;;;;;;42.45;10.85;;;3.40;99.90;;;;;;4958326;28;20022;-93
2022/11/30 02:38:50;;;;;;;31.83;10.45;;;3.40;99.90;;;;;;4958847;28;20126;-94
2022/11/30 02:41:16;;;;;;;29.60;9.30;;;3.30;99.90;;;;;;4958866;28;20035;-94
2022/11/30 02:43:42;;;;;;;33.83;10.43;;;3.40;99.90;;;;;;4959188;28;20045;-94
2022/11/30 02:46:32;;;;;;;32.90;9.57;;;3.40;99.90;;;;;;4958327;28;20035;-93
2022/11/30 02:49:21;;;;;;;36.35;10.15;;;3.40;99.90;;;;;;4958135;28;20058;-92
2022/11/30 02:51:49;;;;;;;36.42;10.25;;;3.40;99.90;;;;;;4974529;28;20150;-93
2022/11/30 02:54:16;;;;;;;43.88;11.00;;;3.40;99.90;;;;;;5009908;28;20120;-92
2022/11/30 02:56:42;;;;;;;34.92;10.68;;;3.40;99.90;;;;;;5017743;28;20029;-92
2022/11/30 02:59:07;;;;;;;28.77;11.15;;;3.30;99.90;;;;;;5017472;28;20036;-93
2022/11/30 03:01:33;;;;;;;30.30;9.35;;;3.40;99.90;;;;;;5016878;28;20144;-93
2022/11/30 03:03:59;;;;;;;35.25;9.88;;;3.40;99.90;;;;;;5017071;28;20033;-92
2022/11/30 03:06:24;;;;;;;34.00;10.35;;;3.40;99.90;;;;;;5017473;28;20029;-93
2022/11/30 03:08:50;;;;;;;31.20;9.32;;;3.40;99.90;;;;;;5017652;28;20063;-93
2022/11/30 03:11:16;;;;;;;39.25;10.35;;;3.40;99.90;;;;;;5016945;28;20128;-93
2022/11/30 03:13:41;;;;;;;41.47;11.23;;;3.40;99.90;;;;;;5017311;28;20026;-92
2022/11/30 03:16:13;;;;;;;33.70;9.52;;;3.40;99.90;;;;;;5027711;28;20028;-93
2022/11/30 03:18:41;;;;;;;28.02;9.10;;;3.40;99.90;;;;;;5054010;28;20032;-93
2022/11/30 03:21:09;;;;;;;43.50;10.68;;;3.40;99.90;;;;;;5036846;28;20420;-93
2022/11/30 03:23:35;;;;;;;41.15;10.20;;;3.50;99.90;;;;;;5038404;28;20109;-92
2022/11/30 03:26:01;;;;;;;35.70;10.90;;;3.40;99.90;;;;;;5037957;28;20033;-94
2022/11/30 03:28:27;;;;;;;44.22;11.70;;;3.40;99.90;;;;;;5037736;28;20048;-93
2022/11/30 03:30:53;;;;;;;33.08;10.63;;;3.40;99.90;;;;;;5038467;28;20021;-94
2022/11/30 03:33:19;;;;;;;36.15;10.82;;;3.40;99.90;;;;;;5037072;28;20033;-92
2022/11/30 03:35:44;;;;;;;39.55;11.85;;;3.40;99.90;;;;;;5037108;28;20036;-93
2022/11/30 03:38:10;;;;;;;34.50;8.88;;;3.40;99.90;;;;;;5037224;28;20021;-94
2022/11/30 03:40:37;;;;;;;41.30;9.45;;;3.40;99.90;;;;;;5036476;28;20025;-93
2022/11/30 03:43:03;;;;;;;26.02;9.20;;;3.40;99.90;;;;;;5036606;28;20397;-92
2022/11/30 03:45:29;;;;;;;26.70;8.82;;;3.30;99.90;;;;;;5041984;28;20477;-94
2022/11/30 03:47:55;;;;;;;31.85;9.55;;;3.30;99.90;;;;;;5037431;28;20163;-95
2022/11/30 03:50:21;;;;;;;28.58;9.13;;;3.30;99.90;;;;;;5036188;28;20056;-92
2022/11/30 03:52:47;;;;;;;26.77;8.55;;;3.30;99.90;;;;;;5036188;28;20632;-93
2022/11/30 03:55:13;;;;;;;26.58;8.30;;;3.30;99.90;;;;;;5035853;28;20032;-93
2022/11/30 03:57:38;;;;;;;30.95;8.88;;;3.30;99.90;;;;;;5036751;28;20091;-93
2022/11/30 04:00:05;;;;;;;31.10;8.38;;;3.30;99.90;;;;;;5036263;28;20055;-94
2022/11/30 04:02:31;;;;;;;31.08;8.60;;;3.40;99.90;;;;;;5036344;28;20060;-93
2022/11/30 04:04:57;;;;;;;32.20;9.43;;;3.30;99.90;;;;;;5036001;28;20412;-93
2022/11/30 04:07:23;;;;;;;28.40;8.48;;;3.30;99.90;;;;;;5036520;28;20033;-94
2022/11/30 04:09:48;;;;;;;29.83;9.23;;;3.30;99.90;;;;;;5035491;28;20079;-93
2022/11/30 04:12:14;;;;;;;33.70;8.85;;;3.30;99.90;;;;;;5032268;28;20042;-93
2022/11/30 04:14:40;;;;;;;32.60;9.88;;;3.30;99.90;;;;;;5033256;28;20025;-92
2022/11/30 04:17:05;;;;;;;35.80;9.93;;;3.30;99.90;;;;;;5033529;28;20522;-93
2022/11/30 04:19:31;;;;;;;29.00;7.88;;;3.30;99.90;;;;;;5033279;28;20036;-93
2022/11/30 04:21:57;;;;;;;31.63;8.57;;;3.20;99.90;;;;;;5033592;28;20025;-94
2022/11/30 04:24:23;;;;;;;28.23;8.23;;;3.20;99.90;;;;;;5032545;28;20056;-93
2022/11/30 04:26:48;;;;;;;26.50;10.15;;;3.20;99.90;;;;;;5033070;28;20470;-93
2022/11/30 04:29:14;;;;;;;27.92;7.85;;;3.10;99.90;;;;;;5032666;28;20033;-93
2022/11/30 04:31:39;;;;;;;31.15;9.70;;;3.10;99.90;;;;;;5032952;28;20021;-94
2022/11/30 04:34:05;;;;;;;29.30;9.27;;;3.10;99.90;;;;;;5051865;28;20025;-91
2022/11/30 04:36:31;;;;;;;29.30;8.15;;;3.10;99.90;;;;;;5050869;28;20130;-93
2022/11/30 04:38:56;;;;;;;27.95;8.18;;;3.10;99.90;;;;;;5026026;28;20465;-92
2022/11/30 04:41:22;;;;;;;27.95;8.60;;;3.10;99.90;;;;;;5012927;28;20474;-93
2022/11/30 04:43:47;;;;;;;26.35;7.93;;;3.10;99.90;;;;;;5011983;28;20084;-93
2022/11/30 04:46:13;;;;;;;20.83;7.05;;;3.10;99.90;;;;;;5012137;28;20142;-93
2022/11/30 04:48:39;;;;;;;17.63;6.65;;;3.10;99.90;;;;;;5012611;28;20030;-93
2022/11/30 04:51:06;;;;;;;23.45;7.85;;;3.10;99.90;;;;;;5012694;28;20109;-93
2022/11/30 04:53:33;;;;;;;19.58;7.18;;;3.10;99.90;;;;;;5013152;28;20463;-93
2022/11/30 04:56:07;;;;;;;27.42;8.00;;;3.00;99.90;;;;;;5016581;28;20026;-92
2022/11/30 04:58:33;;;;;;;24.00;7.40;;;3.00;99.90;;;;;;5017111;28;20029;-93
2022/11/30 05:00:59;;;;;;;25.92;7.90;;;3.00;99.90;;;;;;5017052;28;20030;-93
2022/11/30 05:03:24;;;;;;;30.30;9.07;;;3.00;99.90;;;;;;5016964;28;20046;-93
2022/11/30 05:05:50;;;;;;;22.80;8.07;;;3.00;99.90;;;;;;5017067;28;20113;-93
2022/11/30 05:08:16;;;;;;;20.85;7.30;;;3.00;99.90;;;;;;5015427;28;20113;-93
2022/11/30 05:10:41;;;;;;;22.15;7.85;;;3.00;99.90;;;;;;5017097;28;20509;-93
2022/11/30 05:13:07;;;;;;;24.73;8.85;;;3.00;99.90;;;;;;5016921;28;20030;-94
2022/11/30 05:15:33;;;;;;;22.90;8.32;;;3.00;99.90;;;;;;5016170;28;20018;-92
2022/11/30 05:17:59;;;;;;;26.15;8.52;;;2.90;99.90;;;;;;5016603;28;20091;-93
2022/11/30 05:20:26;;;;;;;27.10;8.10;;;3.00;99.90;;;;;;5017792;28;20037;-93
2022/11/30 05:22:51;;;;;;;22.52;7.53;;;3.00;99.90;;;;;;5027090;28;20499;-92
2022/11/30 05:25:17;;;;;;;24.80;7.63;;;3.00;99.90;;;;;;5030781;28;20022;-92
2022/11/30 05:27:42;;;;;;;23.70;8.43;;;3.00;99.90;;;;;;5032065;28;20026;-91
2022/11/30 05:30:10;;;;;;;28.15;8.18;;;3.00;99.90;;;;;;5031061;28;20052;-92
2022/11/30 05:32:35;;;;;;;25.15;7.93;;;3.00;99.90;;;;;;5031378;28;20030;-93
2022/11/30 05:35:01;;;;;;;30.02;9.05;;;3.10;99.90;;;;;;5028831;28;20197;-93
2022/11/30 05:37:27;;;;;;;22.02;7.75;;;3.10;99.90;;;;;;5029697;28;20106;-92
2022/11/30 05:39:52;;;;;;;18.92;7.72;;;3.10;99.90;;;;;;5031704;28;20026;-93
2022/11/30 05:42:18;;;;;;;22.83;7.25;;;3.10;99.90;;;;;;5034515;28;20038;-91
2022/11/30 05:44:44;;;;;;;19.25;7.25;;;3.10;99.90;;;;;;5022399;28;20037;-95
2022/11/30 05:47:09;;;;;;;20.23;6.15;;;3.10;99.90;;;;;;5021028;28;20030;-92
2022/11/30 05:49:35;;;;;;;21.13;6.40;;;3.10;99.90;;;;;;5025188;28;20033;-92
2022/11/30 05:52:01;;;;;;;21.35;6.50;;;3.10;99.90;;;;;;5022206;28;20037;-93
2022/11/30 05:54:26;;;;;;;17.98;6.93;;;3.10;99.90;;;;;;5027839;28;20033;-93
2022/11/30 05:56:52;;;;;;;20.42;6.88;;;3.00;99.90;;;;;;5022608;28;20025;-92
2022/11/30 05:59:17;;;;;;;23.17;7.28;;;3.00;99.90;;;;;;5019734;28;20033;-93
2022/11/30 06:01:43;;;;;;;23.25;7.78;;;3.00;99.90;;;;;;5019939;28;20037;-93
2022/11/30 06:04:09;;;;;;;21.92;7.20;;;3.00;99.90;;;;;;5019658;28;20480;-94
2022/11/30 06:06:34;;;;;;;24.75;6.93;;;3.00;99.90;;;;;;5026051;28;20030;-93
2022/11/30 06:09:00;;;;;;;21.20;7.20;;;3.00;99.90;;;;;;5039220;28;20127;-93
2022/11/30 06:11:25;;;;;;;22.90;7.82;;;3.00;99.90;;;;;;5036812;28;20132;-94
2022/11/30 06:13:51;;;;;;;23.95;7.38;;;3.00;99.90;;;;;;5037224;28;20524;-94
2022/11/30 06:16:17;;;;;;;19.08;6.63;;;3.00;99.90;;;;;;5037125;28;20064;-93
2022/11/30 06:18:42;;;;;;;14.80;5.78;;;3.00;99.90;;;;;;5036808;28;20112;-93
2022/11/30 06:21:10;;;;;;;20.63;6.60;;;3.00;99.90;;;;;;5036817;28;20441;-93
2022/11/30 06:23:36;;;;;;;23.85;7.75;;;3.00;99.90;;;;;;5036787;28;20173;-94
2022/11/30 06:26:06;;;;;;;18.85;6.40;;;3.00;99.90;;;;;;5037186;28;20021;-92
2022/11/30 06:28:33;;;;;;;20.17;6.75;;;3.00;99.90;;;;;;5039756;28;20034;-92
2022/11/30 06:30:59;;;;;;;22.63;7.63;;;3.00;99.90;;;;;;5039411;28;20021;-93
2022/11/30 06:33:25;;;;;;;21.45;7.10;;;3.00;99.90;;;;;;5037180;28;20026;-93
2022/11/30 06:35:50;;;;;;;28.58;8.32;;;3.00;99.90;;;;;;5036701;28;20032;-92
2022/11/30 06:38:17;;;;;;;25.50;8.48;;;2.90;99.90;;;;;;5036437;28;20053;-94
2022/11/30 06:40:42;;;;;;;20.88;6.57;;;2.90;99.90;;;;;;5036729;28;20445;-92
2022/11/30 06:43:08;;;;;;;19.75;7.13;;;3.00;99.90;;;;;;5036498;28;20068;-93
2022/11/30 06:45:34;;;;;;;22.58;7.70;;;2.90;99.90;;;;;;5035144;28;20149;-92
2022/11/30 06:47:59;;;;;;;20.85;6.88;;;2.90;99.90;;;;;;5035205;28;20021;-94
2022/11/30 06:50:25;;;;;;;21.25;6.88;;;2.90;99.90;;;;;;5035035;28;20099;-92
2022/11/30 06:52:51;;;;;;;20.92;6.57;;;3.00;99.90;;;;;;5034869;28;20387;-92
2022/11/30 06:55:16;;;;;;;20.02;6.47;;;2.90;99.90;;;;;;5035526;28;20033;-92
2022/11/30 06:57:42;;;;;;;21.08;7.30;;;2.90;99.90;;;;;;5034992;28;20037;-93
2022/11/30 07:00:10;;;;;;;22.63;6.22;;;2.90;99.90;;;;;;5034862;28;20030;-93
2022/11/30 07:02:36;;;;;;;22.15;7.18;;;3.00;99.90;;;;;;5035937;28;20041;-94
2022/11/30 07:05:02;;;;;;;20.05;6.20;;;3.00;99.90;;;;;;5036452;28;20026;-93
2022/11/30 07:07:29;;;;;;;20.33;6.78;;;3.00;99.90;;;;;;5035265;28;20052;-93
2022/11/30 07:09:55;;;;;;;17.45;5.72;;;3.10;99.90;;;;;;5034865;28;20040;-91
2022/11/30 07:12:20;;;;;;;25.60;7.20;;;3.10;99.90;;;;;;5038720;28;20041;-93
2022/11/30 07:14:46;;;;;;;16.55;6.13;;;3.10;99.90;;;;;;5038618;28;20519;-92
2022/11/30 07:17:12;;;;;;;20.17;6.75;;;3.10;99.90;;;;;;5036974;28;20474;-93
2022/11/30 07:19:37;;;;;;;20.73;6.10;;;3.10;99.90;;;;;;5038654;28;20028;-93
2022/11/30 07:22:03;;;;;;;19.58;5.65;;;3.20;99.90;;;;;;5038696;28;20478;-95
2022/11/30 07:27:13;;;;;;;20.77;7.82;;;3.20;99.90;;;;;;5055634;28;20036;-93
2022/11/30 07:29:38;;;;;;;20.23;6.65;;;3.30;99.90;;;;;;5037085;28;20021;-93
2022/11/30 07:32:04;;;;;;;22.55;6.30;;;3.30;99.90;;;;;;5052442;28;20029;-91
2022/11/30 07:34:30;;;;;;;18.85;6.00;;;3.30;99.90;;;;;;5036563;28;20394;-93
2022/11/30 07:36:55;;;;;;;18.48;5.70;;;3.30;99.90;;;;;;5035921;28;20033;-92
2022/11/30 07:39:22;;;;;;;17.52;5.30;;;3.40;99.90;;;;;;5036984;28;20025;-94
2022/11/30 07:41:48;;;;;;;23.33;7.18;;;3.40;99.90;;;;;;5037092;28;20032;-93
2022/11/30 07:44:14;;;;;;;19.92;6.80;;;3.40;99.90;;;;;;5036698;28;20025;-91
2022/11/30 07:46:39;;;;;;;24.25;7.43;;;3.40;99.90;;;;;;5037283;28;20029;-94
2022/11/30 07:49:07;;;;;;;25.33;8.60;;;3.30;99.90;;;;;;5055458;28;20108;-94
2022/11/30 07:51:34;;;;;;;24.88;7.85;;;3.40;99.90;;;;;;5037056;28;20028;-92
2022/11/30 07:53:59;;;;;;;23.77;7.93;;;3.40;99.90;;;;;;5037270;28;20057;-94
2022/11/30 07:56:27;;;;;;;25.65;7.63;;;3.40;99.90;;;;;;5037734;28;20059;-93
2022/11/30 07:58:55;;;;;;;23.67;8.32;;;3.40;99.90;;;;;;5038848;28;20040;-93
2022/11/30 08:01:22;;;;;;;27.75;7.82;;;3.40;99.90;;;;;;5048882;28;20045;-93
2022/11/30 08:03:52;;;;;;;27.77;7.78;;;3.40;99.90;;;;;;5046465;28;20040;-93
2022/11/30 08:06:25;;;;;;;23.23;7.45;;;3.40;99.90;;;;;;5035344;28;20041;-92
2022/11/30 08:08:52;;;;;;;29.67;7.82;;;3.40;99.90;;;;;;5037280;28;20027;-93
2022/11/30 08:11:21;;;;;;;31.17;7.53;;;3.40;99.90;;;;;;5037224;28;20394;-93
2022/11/30 08:13:47;;;;;;;27.15;7.28;;;3.40;99.90;;;;;;5040432;28;20040;-92
2022/11/30 08:16:35;;;;;;;22.83;7.43;;;3.40;99.90;;;;;;5043351;28;20169;-93
2022/11/30 08:19:01;;;;;;;24.40;7.40;;;3.40;99.90;;;;;;5048920;28;20092;-92
2022/11/30 08:21:26;;;;;;;32.67;8.65;;;3.40;99.90;;;;;;5047782;28;20033;-93
2022/11/30 08:23:57;;;;;;;26.38;8.73;;;3.40;99.90;;;;;;5039723;28;20064;-93
2022/11/30 08:26:23;;;;;;;;;;;3.40;99.90;;;;;;5054113;28;20028;-94
2022/11/30 08:28:50;;;;;;;35.63;10.05;;;3.40;99.90;;;;;;5053067;28;19908;-94
2022/11/30 08:31:19;;;;;;;35.75;9.88;;;3.40;99.90;;;;;;5035761;28;20018;-94
2022/11/30 08:33:46;;;;;;;37.38;10.95;;;3.40;99.90;;;;;;5049495;28;20033;-93
2022/11/30 08:36:14;;;;;;;39.55;10.63;;;3.50;99.90;;;;;;5035532;28;20078;-94
2022/11/30 08:38:41;;;;;;;37.65;11.10;;;3.50;99.90;;;;;;5036196;28;20064;-92
2022/11/30 08:41:09;;;;;;;36.55;10.70;;;3.50;99.90;;;;;;5036279;28;20017;-91
2022/11/30 08:43:35;;;;;;;33.80;9.85;;;3.50;99.90;;;;;;5035563;28;20043;-91
2022/11/30 08:46:02;;;;;;;35.60;9.18;;;3.50;99.90;;;;;;5038030;28;20029;-92
2022/11/30 08:48:29;;;;;;;31.98;9.73;;;3.50;99.90;;;;;;5039663;28;20049;-92
2022/11/30 08:50:59;;;;;;;33.40;9.65;;;3.50;99.90;;;;;;5025268;28;20020;-92
2022/11/30 08:53:25;;;;;;;45.35;11.00;;;3.50;99.90;;;;;;5030684;28;20024;-92
2022/11/30 08:55:58;;;;;;;33.83;9.18;;;3.60;99.90;;;;;;5051646;28;20075;-93
2022/11/30 08:58:26;;;;;;;39.75;10.48;;;3.50;99.90;;;;;;5028326;28;20037;-92
2022/11/30 09:00:52;;;;;;;34.78;9.68;;;3.50;99.90;;;;;;5028107;28;20029;-94
2022/11/30 09:03:18;;;;;;;34.60;9.70;;;3.60;99.90;;;;;;5023260;28;20498;-93
2022/11/30 09:05:44;;;;;;;39.22;11.15;;;3.60;99.90;;;;;;5035388;28;20234;-93
2022/11/30 09:08:09;;;;;;;39.00;10.48;;;3.60;99.90;;;;;;5034692;28;20470;-91
2022/11/30 09:10:35;;;;;;;40.17;11.20;;;3.60;99.90;;;;;;5057751;28;20037;-93
2022/11/30 09:13:01;;;;;;;38.35;10.85;;;3.60;99.90;;;;;;5056501;28;20040;-93
2022/11/30 09:15:26;;;;;;;33.08;10.38;;;3.70;99.90;;;;;;5028237;28;20025;-93
2022/11/30 09:17:52;;;;;;;35.70;9.48;;;3.70;99.90;;;;;;5050011;28;20025;-91
2022/11/30 09:20:19;;;;;;;41.60;10.27;;;3.70;99.90;;;;;;5034964;28;20029;-91
2022/11/30 09:22:44;;;;;;;35.45;9.80;;;3.70;99.90;;;;;;5034503;28;20021;-93
2022/11/30 09:25:10;;;;;;;42.05;11.35;;;3.70;99.90;;;;;;5034108;28;20025;-94
2022/11/30 09:27:35;;;;;;;42.20;12.35;;;3.80;99.90;;;;;;5050438;28;20025;-94
2022/11/30 09:30:04;;;;;;;36.78;11.18;;;3.80;99.90;;;;;;5050469;28;20338;-92
2022/11/30 09:32:30;;;;;;;35.85;10.13;;;3.80;99.90;;;;;;5033364;28;20123;-93
2022/11/30 09:34:56;;;;;;;32.22;10.30;;;3.80;99.90;;;;;;5050660;28;20121;-93
2022/11/30 09:37:22;;;;;;;34.85;9.43;;;3.90;99.90;;;;;;5034287;28;20028;-94
2022/11/30 09:39:48;;;;;;;35.38;10.55;;;3.90;99.90;;;;;;5036479;28;20463;-94
2022/11/30 09:42:50;;;;;;;40.75;9.68;;;3.90;99.90;;;;;;5037658;28;20082;-94
2022/11/30 09:45:21;;;;;;;37.80;9.57;;;3.90;99.90;;;;;;5035780;28;20021;-92
2022/11/30 09:47:57;;;;;;;42.28;11.27;;;3.90;99.90;;;;;;5037870;28;20111;-95
2022/11/30 09:50:26;;;;;;;40.42;11.60;;;4.00;99.90;;;;;;5037964;28;20096;-94
2022/11/30 09:53:00;;;;;;;47.95;12.00;;;4.00;99.90;;;;;;5049418;28;20028;-93
2022/11/30 09:55:38;;;;;;;42.92;11.82;;;4.00;99.90;;;;;;5037532;28;20482;-93
2022/11/30 09:58:05;;;;;;;43.10;11.00;;;4.00;99.90;;;;;;5037429;28;20478;-94
2022/11/30 10:00:32;;;;;;;43.08;11.93;;;4.00;99.90;;;;;;5037873;28;20083;-93
2022/11/30 10:03:05;;;;;;;38.40;10.98;;;4.00;99.90;;;;;;5038181;28;20037;-95
2022/11/30 10:05:46;;;;;;;42.72;11.88;;;4.00;99.90;;;;;;5038105;28;20039;-93
2022/11/30 10:08:45;;;;;;;48.95;12.35;;;4.10;99.90;;;;;;5052218;28;20047;-94
2022/11/30 10:11:17;;;;;;;59.13;13.20;;;4.10;99.90;;;;;;5038496;28;20106;-93
2022/11/30 10:14:09;;;;;;;56.92;13.48;;;4.10;99.90;;;;;;5043341;28;20036;-94
2022/11/30 10:16:59;;;;;;;56.05;13.63;;;4.10;99.90;;;;;;5025658;28;20162;-94
2022/11/30 10:19:39;;;;;;;49.92;12.13;;;4.20;99.90;;;;;;5040032;28;20052;-94
2022/11/30 10:22:11;;;;;;;49.53;12.85;;;4.20;99.90;;;;;;5038078;28;20037;-93
2022/11/30 10:24:59;;;;;;;42.40;11.60;;;4.20;99.90;;;;;;5037642;28;20108;-95
2022/11/30 10:27:31;;;;;;;52.28;14.23;;;4.30;99.90;;;;;;5037831;28;20025;-93
2022/11/30 10:29:59;;;;;;;54.35;14.20;;;4.30;99.90;;;;;;5039411;28;20131;-93
2022/11/30 10:32:35;;;;;;;49.35;13.32;;;4.30;99.90;;;;;;5041211;28;20036;-93
2022/11/30 10:35:14;;;;;;;53.15;13.70;;;4.40;99.90;;;;;;5047816;28;20017;-94
2022/11/30 10:37:41;;;;;;;42.72;12.15;;;4.40;99.90;;;;;;5045045;28;20142;-94
2022/11/30 10:40:37;;;;;;;52.58;14.40;;;4.40;99.90;;;;;;5037369;28;20025;-93
2022/11/30 10:43:31;;;;;;;44.92;12.48;;;4.40;99.90;;;;;;5036249;28;20041;-94
2022/11/30 10:45:57;;;;;;;50.95;13.90;;;4.50;99.90;;;;;;5053121;28;20075;-95
2022/11/30 10:48:39;;;;;;;47.42;12.90;;;4.50;99.90;;;;;;5052229;28;20020;-94
2022/11/30 10:51:07;;;;;;;44.60;12.30;;;4.50;99.90;;;;;;5033031;28;20095;-94
2022/11/30 10:53:33;;;;;;;40.75;12.05;;;4.50;99.90;;;;;;5037290;28;20020;-93
2022/11/30 10:56:06;;;;;;;34.50;11.40;;;4.50;99.90;;;;;;5062212;28;20107;-94
2022/11/30 10:58:38;;;;;;;40.35;10.98;;;4.50;99.90;;;;;;5036706;28;20055;-93
2022/11/30 11:01:10;;;;;;;35.97;11.43;;;4.60;99.90;;;;;;5036225;28;20565;-91
2022/11/30 11:03:36;;;;;;;39.65;12.10;;;4.60;99.90;;;;;;5035943;28;20045;-95
2022/11/30 11:06:06;;;;;;;38.53;12.05;;;4.60;99.90;;;;;;5033791;28;20021;-94
2022/11/30 11:08:32;;;;;;;37.85;11.98;;;4.60;99.90;;;;;;5036908;28;20056;-92
2022/11/30 11:10:58;;;;;;;24.83;8.68;;;4.70;99.90;;;;;;5054012;28;20079;-92
2022/11/30 11:13:37;;;;;;;29.80;9.23;;;4.70;99.90;;;;;;5027358;28;20087;-94
2022/11/30 11:16:05;;;;;;;28.75;10.88;;;4.70;99.90;;;;;;5017212;28;20037;-95
2022/11/30 11:18:34;;;;;;;37.20;11.48;;;4.80;99.90;;;;;;5017779;28;20111;-91
2022/11/30 11:20:59;;;;;;;31.65;10.85;;;4.80;99.90;;;;;;5018023;28;20026;-94
2022/11/30 11:23:37;;;;;;;178.45;108.00;;;4.90;99.90;;;;;;5017464;28;20101;-94
2022/11/30 11:26:05;;;;;;;41.58;12.55;;;4.90;99.90;;;;;;5020739;28;20030;-94
2022/11/30 11:28:33;;;;;;;35.17;10.80;;;4.90;99.90;;;;;;5036329;28;20504;-94
2022/11/30 11:30:59;;;;;;;37.28;10.57;;;5.00;99.90;;;;;;5036351;28;20029;-91
2022/11/30 11:33:28;;;;;;;29.77;10.20;;;5.00;99.90;;;;;;5036051;28;20504;-95
2022/11/30 11:36:06;;;;;;;30.20;10.38;;;5.00;99.90;;;;;;5036147;28;20029;-92
2022/11/30 11:38:50;;;;;;;33.88;10.98;;;5.00;99.90;;;;;;5027956;28;20072;-95
2022/11/30 11:41:36;;;;;;;31.55;10.27;;;5.00;99.90;;;;;;5016081;28;20021;-92
2022/11/30 11:44:22;;;;;;;32.35;10.45;;;5.00;99.90;;;;;;5016210;28;20034;-92
2022/11/30 11:46:59;;;;;;;31.85;10.70;;;5.00;99.90;;;;;;5022317;28;20509;-91
2022/11/30 11:49:31;;;;;;;31.50;10.18;;;5.00;99.90;;;;;;5035792;28;20036;-92
2022/11/30 11:52:19;;;;;;;31.40;9.93;;;5.00;99.90;;;;;;5035701;28;20033;-92
2022/11/30 11:55:14;;;;;;;29.55;9.88;;;5.10;99.90;;;;;;5021175;28;20144;-92
2022/11/30 11:57:43;;;;;;;28.73;10.15;;;5.10;99.90;;;;;;5035071;28;20406;-93
2022/11/30 12:00:17;;;;;;;32.72;10.85;;;5.10;99.90;;;;;;5021454;28;20128;-94
2022/11/30 12:03:07;;;;;;;30.13;9.52;;;5.10;99.90;;;;;;5034862;28;20041;-93
2022/11/30 12:05:48;;;;;;;28.55;10.05;;;5.10;99.90;;;;;;5036039;28;20153;-93
2022/11/30 12:08:40;;;;;;;32.78;11.15;;;5.20;99.90;;;;;;5053322;28;20033;-93
2022/11/30 12:11:24;;;;;;;32.67;11.20;;;5.10;99.90;;;;;;5024773;28;20129;-95
2022/11/30 12:13:50;;;;;;;34.70;10.82;;;5.20;99.90;;;;;;5035273;28;20017;-94
2022/11/30 12:16:25;;;;;;;41.30;12.52;;;5.10;99.90;;;;;;5027102;28;20052;-94
2022/11/30 12:18:59;;;;;;;38.80;13.00;;;5.10;99.90;;;;;;5029100;28;20382;-93
2022/11/30 12:21:41;;;;;;;38.03;13.52;;;5.10;99.90;;;;;;5033744;28;20041;-93
2022/11/30 12:24:31;;;;;;;31.52;11.00;;;5.20;99.90;;;;;;5039329;28;20037;-93
2022/11/30 12:27:01;;;;;;;29.48;10.52;;;5.20;99.90;;;;;;5058343;28;20025;-93
2022/11/30 12:29:52;;;;;;;31.02;10.35;;;5.20;99.90;;;;;;5034801;28;20470;-93
2022/11/30 12:32:41;;;;;;;31.63;10.50;;;5.10;99.90;;;;;;5033000;28;20033;-95
2022/11/30 12:35:26;;;;;;;33.00;11.50;;;5.10;99.90;;;;;;5016240;28;20052;-94
2022/11/30 12:38:15;;;;;;;38.08;12.38;;;5.00;99.90;;;;;;5035485;28;20029;-93
2022/11/30 12:40:55;;;;;;;36.65;11.32;;;5.00;99.90;;;;;;4992081;28;20468;-94
2022/11/30 12:43:33;;;;;;;38.38;12.57;;;5.00;99.90;;;;;;5008358;28;20046;-94
2022/11/30 12:46:24;;;;;;;35.00;11.68;;;5.00;99.90;;;;;;4991956;28;20031;-93
2022/11/30 12:49:14;;;;;;;28.73;11.43;;;5.00;99.90;;;;;;4992041;28;20061;-94
2022/11/30 12:51:54;;;;;;;32.93;11.73;;;5.00;99.90;;;;;;4991607;28;20134;-94
2022/11/30 12:55:02;;;;;;;35.17;11.73;;;5.10;99.90;;;;;;4992346;28;20042;-93
2022/11/30 12:57:42;;;;;;;31.73;11.63;;;5.10;99.90;;;;;;5009394;28;20285;-95
2022/11/30 13:00:18;;;;;;;21.45;8.20;;;5.10;99.90;;;;;;4997358;28;20042;-94